Huvudsida
METAR-TAF:

METAR-TAF

Flygplatser :

Nouakchotts flygplats

Nouakchott, Mauretanien

latitud: 18-18-36N, longitud: 015-58-11W, höjd: 3 m

Aktuellt väderrapport

Denna rapport gjordes för 43 minuter sedan, klockan 07:30 UTC
Vind 15 kt från nord
Temperatur 22°C
Fuktighet 50%
Tryck 1012 hPa
Sikt: 6000 m

METAR: GQNO 270730Z 36015KT 6000 NSC 22/11 Q1012 NOSIG

Tid: 08:13 (08:13 UTC)

Väderprognos

Denna rapport gjordes för 3 timmar och 13 minuter sedan, klockan 05:00 UTC
Prognos gäller från 27 kl. 06 UTC till 28 kl. 12 UTC
Vind 12 kt från nord
Sikt: 8000 m

TAF: GQNO 270500Z 2706/2812 35012KT 8000 NSC

Aktuella väderrapporter och prognoser från 4000 flygplatser (METAR- och TAF-rapporter).

De tillgängliga stationerna syns som gula och röda prickar på kartan.

För musen över prickarna för att se namnen på stationerna.

Klicka sedan för att få väderrapporter och prognoser.

För att ändra kartan: Klicka på de gröna knapparna med ett svart kors på för att zooma in; den gröna knappen med ett streck på för att zooma ut; eller på de gröna pilarna för angränsande kartor.


METAR-TAF: